Time;durP1;ratioP1;P1;durP2;ratioP2;P2;SDS_P1;SDS_P2;PMS_P1;PMS_P2;Temp;Humidity;BMP_temperature;BMP_pressure;BME280_temperature;BME280_humidity;BME280_pressure;Samples;Min_cycle;Max_cycle;Signal;HPM_P1;HPM_P2
2022/12/10 00:00:18;;;;;;;320.88;112.60;;;;;;;-4.36;100.00;100771.38;5054597;28;20021;-47
2022/12/10 00:02:43;;;;;;;341.50;116.03;;;;;;;-4.38;100.00;100782.94;5055085;28;20025;-48
2022/12/10 00:05:09;;;;;;;316.77;110.85;;;;;;;-4.46;100.00;100778.88;5055117;28;20075;-46
2022/12/10 00:07:34;;;;;;;163.10;34.67;;;;;;;-4.39;100.00;100781.19;5054075;28;20464;-44
2022/12/10 00:09:59;;;;;;;168.80;32.97;;;;;;;-4.40;100.00;100784.44;5055239;28;20025;-46
2022/12/10 00:12:25;;;;;;;324.20;109.63;;;;;;;-4.48;100.00;100782.88;5054932;28;20036;-47
2022/12/10 00:14:50;;;;;;;338.83;113.30;;;;;;;-4.51;100.00;100786.00;5053951;28;20028;-48
2022/12/10 00:17:15;;;;;;;333.88;115.20;;;;;;;-4.52;100.00;100785.88;5054924;28;20531;-46
2022/12/10 00:19:41;;;;;;;327.98;111.72;;;;;;;-4.52;100.00;100783.34;5054813;28;20033;-48
2022/12/10 00:22:06;;;;;;;391.50;123.80;;;;;;;-4.39;100.00;100785.31;5054248;28;20026;-48
2022/12/10 00:24:31;;;;;;;180.57;37.38;;;;;;;-4.35;100.00;100788.25;5054779;28;20029;-43
2022/12/10 00:26:57;;;;;;;390.85;123.22;;;;;;;-4.31;100.00;100785.25;5054856;28;20039;-46
2022/12/10 00:29:22;;;;;;;176.90;37.55;;;;;;;-4.24;100.00;100785.78;5054106;28;20059;-47
2022/12/10 00:31:47;;;;;;;188.10;38.67;;;;;;;-4.18;100.00;100783.81;5054304;28;20024;-47
2022/12/10 00:34:13;;;;;;;361.70;116.63;;;;;;;-4.30;100.00;100792.06;5054108;28;20028;-46
2022/12/10 00:36:42;;;;;;;344.33;115.18;;;;;;;-4.32;100.00;100793.53;5054339;28;20476;-48
2022/12/10 00:39:09;;;;;;;375.95;123.20;;;;;;;-4.31;100.00;100790.28;5054636;28;20107;-46
2022/12/10 00:41:35;;;;;;;415.90;134.98;;;;;;;-4.22;100.00;100789.31;5053479;28;20349;-47
2022/12/10 00:44:00;;;;;;;413.02;138.38;;;;;;;-4.17;100.00;100788.09;5054312;28;20036;-47
2022/12/10 00:46:26;;;;;;;431.52;137.25;;;;;;;-4.11;100.00;100791.13;5054694;28;20016;-48
2022/12/10 00:48:51;;;;;;;405.58;133.20;;;;;;;-4.15;100.00;100792.50;5052801;28;20103;-48
2022/12/10 00:51:20;;;;;;;404.02;135.88;;;;;;;-4.12;100.00;100794.41;5054502;28;20048;-48
2022/12/10 00:53:47;;;;;;;397.98;132.20;;;;;;;-4.18;100.00;100781.31;5053904;28;20029;-46
2022/12/10 00:56:18;;;;;;;371.85;124.75;;;;;;;-4.30;100.00;100781.09;5053583;28;20103;-47
2022/12/10 00:58:43;;;;;;;394.25;131.23;;;;;;;-4.28;100.00;100764.50;5053794;28;20059;-47
2022/12/10 01:01:11;;;;;;;182.20;39.08;;;;;;;-4.23;100.00;100775.00;5054458;28;20456;-48
2022/12/10 01:03:37;;;;;;;368.63;126.68;;;;;;;-4.32;100.00;100767.50;5053090;28;20036;-47
2022/12/10 01:06:12;;;;;;;363.17;125.90;;;;;;;-4.40;100.00;100774.38;5054210;28;20109;-46
2022/12/10 01:08:38;;;;;;;385.38;128.23;;;;;;;-4.43;100.00;100774.09;5053738;28;20024;-47
2022/12/10 01:11:04;;;;;;;183.07;37.60;;;;;;;-4.34;100.00;100769.91;5053068;28;20044;-48
2022/12/10 01:13:29;;;;;;;386.48;131.82;;;;;;;-4.37;100.00;100771.25;5053858;28;20025;-47
2022/12/10 01:15:54;;;;;;;372.90;127.45;;;;;;;-4.47;100.00;100779.59;5053687;28;20025;-48
2022/12/10 01:18:19;;;;;;;372.58;129.45;;;;;;;-4.48;100.00;100781.25;5053199;28;20120;-47
2022/12/10 01:20:45;;;;;;;378.83;129.77;;;;;;;-4.51;100.00;100785.13;5053540;28;20079;-49
2022/12/10 01:23:10;;;;;;;364.98;128.18;;;;;;;-4.54;100.00;100785.75;5053702;28;20102;-48
2022/12/10 01:25:35;;;;;;;366.30;128.60;;;;;;;-4.58;100.00;100788.72;5052673;28;20433;-46
2022/12/10 01:28:01;;;;;;;174.93;35.90;;;;;;;-4.47;100.00;100792.19;5053505;28;20033;-47
2022/12/10 01:30:26;;;;;;;168.60;38.10;;;;;;;-4.51;100.00;100795.19;5052789;28;20034;-47
2022/12/10 01:32:51;;;;;;;387.23;131.02;;;;;;;-4.61;100.00;100792.59;5053395;28;20033;-47
2022/12/10 01:35:16;;;;;;;397.02;130.70;;;;;;;-4.56;100.00;100796.41;5053665;28;20021;-47
2022/12/10 01:37:42;;;;;;;189.45;38.80;;;;;;;-4.54;100.00;100782.34;5052487;28;20094;-46
2022/12/10 01:40:08;;;;;;;436.40;142.88;;;;;;;-4.48;100.00;100793.84;5053413;28;20033;-46
2022/12/10 01:42:33;;;;;;;463.73;149.75;;;;;;;-4.36;100.00;100791.50;5052872;28;20033;-45
2022/12/10 01:45:02;;;;;;;198.45;40.83;;;;;;;-4.31;100.00;100794.44;5052752;28;20115;-47
2022/12/10 01:47:28;;;;;;;450.63;146.95;;;;;;;-4.22;100.00;100792.72;5053193;28;20451;-48
2022/12/10 01:49:53;;;;;;;447.05;144.85;;;;;;;-4.23;100.00;100783.41;5053030;28;20511;-48
2022/12/10 01:52:18;;;;;;;450.55;147.85;;;;;;;-4.16;100.00;100789.84;5052465;28;20029;-48
2022/12/10 01:54:45;;;;;;;470.90;149.43;;;;;;;-4.10;100.00;100792.03;5052760;28;20060;-48
2022/12/10 01:57:17;;;;;;;193.95;39.58;;;;;;;-4.05;100.00;100798.38;5053154;28;20112;-47
2022/12/10 01:59:46;;;;;;;454.98;142.50;;;;;;;-4.04;100.00;100790.94;5052134;28;20039;-46
2022/12/10 02:02:26;;;;;;;454.15;145.60;;;;;;;-3.97;100.00;100793.22;5052975;28;20122;-48
2022/12/10 02:05:03;;;;;;;436.85;144.85;;;;;;;-3.93;100.00;100796.88;5052997;28;20415;-48
2022/12/10 02:07:56;;;;;;;437.70;140.48;;;;;;;-3.90;100.00;100798.78;5052273;28;20163;-47
2022/12/10 02:10:21;;;;;;;448.00;143.25;;;;;;;-3.84;100.00;100794.28;5053178;28;20033;-48
2022/12/10 02:12:57;;;;;;;436.33;141.70;;;;;;;-3.84;100.00;100790.13;5051957;28;20532;-47
2022/12/10 02:15:31;;;;;;;438.30;141.25;;;;;;;-3.81;100.00;100795.44;5052696;28;20024;-46
2022/12/10 02:18:03;;;;;;;438.55;144.27;;;;;;;-3.81;100.00;100797.06;5052678;28;20071;-47
2022/12/10 02:20:38;;;;;;;423.20;140.55;;;;;;;-3.77;100.00;100799.13;5052090;28;20078;-47
2022/12/10 02:23:13;;;;;;;418.80;137.07;;;;;;;-3.77;100.00;100795.69;5052579;28;20124;-48
2022/12/10 02:25:51;;;;;;;422.90;137.70;;;;;;;-3.77;100.00;100800.72;5052600;28;20117;-47
2022/12/10 02:28:40;;;;;;;426.77;136.57;;;;;;;-3.77;100.00;100800.72;5051984;28;20091;-47
2022/12/10 02:31:09;;;;;;;397.17;133.75;;;;;;;-3.81;100.00;100794.53;5052927;28;20029;-45
2022/12/10 02:33:39;;;;;;;409.95;130.80;;;;;;;-3.90;100.00;100789.63;5052388;28;20025;-45
2022/12/10 02:36:06;;;;;;;403.45;131.48;;;;;;;-3.96;100.00;100799.16;5052577;28;20469;-47
2022/12/10 02:38:34;;;;;;;417.10;133.05;;;;;;;-3.97;100.00;100802.41;5052330;28;20028;-43
2022/12/10 02:41:05;;;;;;;430.67;134.82;;;;;;;-4.00;100.00;100802.16;5051752;28;20128;-46
2022/12/10 02:43:32;;;;;;;438.02;135.60;;;;;;;-4.05;100.00;100795.84;5052604;28;20028;-44
2022/12/10 02:45:59;;;;;;;454.05;136.75;;;;;;;-4.06;100.00;100796.59;5052726;28;20090;-47
2022/12/10 02:48:25;;;;;;;427.10;127.20;;;;;;;-4.10;100.00;100802.97;5051803;28;20472;-47
2022/12/10 02:50:51;;;;;;;175.05;34.60;;;;;;;-3.98;100.00;100805.69;5052261;28;20072;-45
2022/12/10 02:53:16;;;;;;;428.98;131.80;;;;;;;-4.02;100.00;100803.66;5052418;28;20072;-48
2022/12/10 02:55:55;;;;;;;186.38;38.70;;;;;;;-3.91;100.00;100807.09;5051643;28;20023;-48
2022/12/10 02:58:29;;;;;;;440.48;129.60;;;;;;;-4.07;100.00;100808.28;5052538;28;20024;-47
2022/12/10 03:01:37;;;;;;;451.40;131.23;;;;;;;-4.06;100.00;100804.13;5052176;28;20021;-48
2022/12/10 03:04:28;;;;;;;465.83;133.13;;;;;;;-4.09;100.00;100806.38;5051565;28;20128;-49
2022/12/10 03:07:00;;;;;;;482.33;137.40;;;;;;;-4.16;100.00;100810.88;5049544;28;20037;-47
2022/12/10 03:09:34;;;;;;;477.17;134.18;;;;;;;-4.16;100.00;100810.00;5051651;28;20033;-44
2022/12/10 03:12:06;;;;;;;460.80;136.68;;;;;;;-4.14;100.00;100800.94;5053677;28;20096;-47
2022/12/10 03:14:33;;;;;;;467.17;134.95;;;;;;;-4.07;100.00;100805.75;5055886;28;20535;-43
2022/12/10 03:17:01;;;;;;;512.58;140.18;;;;;;;-4.10;100.00;100802.97;5055615;28;20025;-47
2022/12/10 03:19:48;;;;;;;496.60;137.13;;;;;;;-4.04;100.00;100808.56;5056435;28;20021;-47
2022/12/10 03:22:17;;;;;;;542.88;142.07;;;;;;;-4.08;100.00;100811.56;5055865;28;20047;-46
2022/12/10 03:24:43;;;;;;;516.92;142.45;;;;;;;-4.04;100.00;100807.66;5055188;28;20060;-48
2022/12/10 03:27:11;;;;;;;497.85;140.77;;;;;;;-4.02;100.00;100808.69;5056123;28;20056;-48
2022/12/10 03:29:41;;;;;;;513.88;147.98;;;;;;;-4.01;100.00;100803.78;5055893;28;20033;-47
2022/12/10 03:32:07;;;;;;;512.13;144.55;;;;;;;-4.02;100.00;100799.47;5055247;28;20028;-48
2022/12/10 03:34:34;;;;;;;529.75;144.88;;;;;;;-4.03;100.00;100797.75;5055697;28;20029;-47
2022/12/10 03:37:01;;;;;;;509.25;144.25;;;;;;;-3.97;100.00;100802.41;5055058;28;20060;-46
2022/12/10 03:39:27;;;;;;;185.85;36.90;;;;;;;-3.88;100.00;100802.34;5055494;28;20452;-47
2022/12/10 03:41:52;;;;;;;490.88;142.43;;;;;;;-3.91;100.00;100797.91;5055426;28;20075;-47
2022/12/10 03:44:31;;;;;;;511.00;141.77;;;;;;;-3.89;100.00;100805.59;5055056;28;20476;-47
2022/12/10 03:46:57;;;;;;;529.15;144.95;;;;;;;-3.91;100.00;100814.63;5055708;28;20033;-47
2022/12/10 03:49:23;;;;;;;213.57;40.05;;;;;;;-3.82;100.00;100816.34;5055542;28;20380;-48
2022/12/10 03:51:48;;;;;;;206.82;40.08;;;;;;;-3.78;100.00;100820.00;5054327;28;20037;-46
2022/12/10 03:54:13;;;;;;;506.80;141.75;;;;;;;-3.82;100.00;100820.50;5055549;28;20027;-47
2022/12/10 03:56:39;;;;;;;530.50;142.02;;;;;;;-3.84;100.00;100816.94;5055373;28;20033;-48
2022/12/10 03:59:04;;;;;;;195.38;36.53;;;;;;;-3.72;100.00;100825.56;5054562;28;20457;-47
2022/12/10 04:01:29;;;;;;;508.33;140.27;;;;;;;-3.79;100.00;100822.41;5055383;28;20031;-47
2022/12/10 04:03:55;;;;;;;525.85;141.63;;;;;;;-3.82;100.00;100810.41;5054726;28;20098;-43
2022/12/10 04:06:20;;;;;;;497.73;143.02;;;;;;;-3.79;100.00;100823.28;5054551;28;20021;-47
2022/12/10 04:08:47;;;;;;;529.30;142.80;;;;;;;-3.80;100.00;100816.47;5054979;28;20029;-47
2022/12/10 04:11:14;;;;;;;584.30;143.25;;;;;;;-3.84;100.00;100815.31;5055293;28;20071;-45
2022/12/10 04:16:27;;;;;;;591.60;146.90;;;;;;;-3.85;100.00;100817.69;5055345;28;20408;-48
2022/12/10 04:19:14;;;;;;;214.38;39.03;;;;;;;-3.74;100.00;100822.03;5054599;28;20452;-46
2022/12/10 04:27:29;;;;;;;565.20;145.45;;;;;;;-3.82;100.00;100821.38;5054397;28;20056;-46
2022/12/10 04:29:56;;;;;;;208.98;36.58;;;;;;;-3.73;100.00;100823.81;5054430;28;20464;-45
2022/12/10 04:32:23;;;;;;;573.93;148.03;;;;;;;-3.79;100.00;100833.34;5054787;28;20099;-47
2022/12/10 04:34:48;;;;;;;212.35;40.28;;;;;;;-3.72;100.00;100830.63;5053494;28;20763;-48
2022/12/10 04:37:15;;;;;;;219.77;41.10;;;;;;;-3.69;100.00;100830.88;5054649;28;20036;-48
2022/12/10 04:39:40;;;;;;;568.20;144.68;;;;;;;-3.74;100.00;100831.22;5054192;28;20033;-46
2022/12/10 04:42:06;;;;;;;634.72;151.98;;;;;;;-3.78;100.00;100825.03;5053629;28;20024;-47
2022/12/10 04:44:32;;;;;;;663.28;152.20;;;;;;;-3.82;100.00;100818.84;5054410;28;20101;-45
2022/12/10 04:46:57;;;;;;;652.80;152.20;;;;;;;-3.83;100.00;100831.31;5054579;28;20025;-47
2022/12/10 04:49:23;;;;;;;635.92;151.23;;;;;;;-3.80;100.00;100836.59;5053766;28;20025;-47
2022/12/10 04:51:49;;;;;;;620.50;155.90;;;;;;;-3.81;100.00;100834.84;5054023;28;20060;-46
2022/12/10 04:54:15;;;;;;;672.95;158.52;;;;;;;-3.81;100.00;100832.31;5054038;28;20538;-45
2022/12/10 04:56:41;;;;;;;713.85;157.05;;;;;;;-3.85;100.00;100832.81;5053670;28;20029;-44
2022/12/10 04:59:07;;;;;;;733.60;161.02;;;;;;;-3.86;100.00;100831.94;5054406;28;20017;-47
2022/12/10 05:01:33;;;;;;;700.05;159.43;;;;;;;-3.84;100.00;100844.66;5053078;28;20476;-46
2022/12/10 05:04:04;;;;;;;620.13;149.75;;;;;;;-3.82;100.00;100838.13;5053952;28;20049;-48
2022/12/10 05:06:30;;;;;;;696.65;156.23;;;;;;;-3.85;100.00;100838.75;5053990;28;20021;-47
2022/12/10 05:08:56;;;;;;;643.10;152.05;;;;;;;-3.83;100.00;100837.22;5053322;28;20377;-47
2022/12/10 05:11:24;;;;;;;270.73;45.20;;;;;;;-3.74;100.00;100839.66;5054214;28;20071;-45
2022/12/10 05:13:49;;;;;;;654.25;155.93;;;;;;;-3.78;100.00;100834.22;5053823;28;20104;-46
2022/12/10 05:16:17;;;;;;;638.42;157.25;;;;;;;-3.74;100.00;100834.63;5053145;28;20550;-46
2022/12/10 05:18:43;;;;;;;625.20;157.25;;;;;;;-3.68;100.00;100839.28;5053591;28;20021;-46
2022/12/10 05:21:14;;;;;;;276.08;45.28;;;;;;;-3.60;100.00;100839.94;5053807;28;20029;-46
2022/12/10 05:23:42;;;;;;;624.72;151.20;;;;;;;-3.62;100.00;100836.44;5052851;28;20090;-48
2022/12/10 05:26:17;;;;;;;628.72;149.32;;;;;;;-3.61;100.00;100843.25;5053841;28;20036;-46
2022/12/10 05:28:50;;;;;;;622.70;149.60;;;;;;;-3.58;100.00;100843.50;5053495;28;20033;-47
2022/12/10 05:31:20;;;;;;;629.28;148.10;;;;;;;-3.61;100.00;100845.78;5052950;28;20029;-46
2022/12/10 05:33:46;;;;;;;698.53;146.65;;;;;;;-3.67;100.00;100839.44;5053165;28;20460;-46
2022/12/10 05:36:14;;;;;;;691.45;153.40;;;;;;;-3.70;100.00;100839.16;5053434;28;20021;-44
2022/12/10 05:38:39;;;;;;;;;;;;;;;-3.59;100.00;100837.59;5052790;28;20036;-47
2022/12/10 05:41:11;;;;;;;229.60;41.03;;;;;;;-3.62;100.00;100837.31;5053548;28;19913;-47
2022/12/10 05:43:36;;;;;;;598.22;140.73;;;;;;;-3.74;100.00;100837.13;5052481;28;20029;-47
2022/12/10 05:46:03;;;;;;;617.03;146.73;;;;;;;-3.73;100.00;100838.91;5053321;28;20048;-47
2022/12/10 05:48:29;;;;;;;192.52;37.05;;;;;;;-3.67;100.00;100836.94;5053312;28;20040;-45
2022/12/10 05:50:54;;;;;;;642.95;147.75;;;;;;;-3.71;100.00;100827.31;5052504;28;20017;-47
2022/12/10 05:53:19;;;;;;;646.45;145.55;;;;;;;-3.73;100.00;100838.91;5053323;28;20457;-47
2022/12/10 05:55:45;;;;;;;643.25;149.52;;;;;;;-3.76;100.00;100836.13;5052939;28;20035;-45
2022/12/10 05:58:10;;;;;;;657.10;144.85;;;;;;;-3.76;100.00;100843.66;5052408;28;20029;-48
2022/12/10 06:00:38;;;;;;;635.70;150.35;;;;;;;-3.76;100.00;100848.69;5052837;28;20033;-50
2022/12/10 06:03:03;;;;;;;613.42;142.23;;;;;;;-3.75;100.00;100844.56;5053225;28;20033;-47
2022/12/10 06:05:29;;;;;;;601.78;142.00;;;;;;;-3.76;100.00;100848.69;5052297;28;20090;-45
2022/12/10 06:07:54;;;;;;;216.07;36.40;;;;;;;-3.68;100.00;100852.78;5052625;28;20052;-43
2022/12/10 06:10:19;;;;;;;652.50;147.65;;;;;;;-3.73;100.00;100849.00;5053057;28;20061;-48
2022/12/10 06:12:44;;;;;;;661.13;145.88;;;;;;;-3.73;100.00;100843.94;5051954;28;20024;-52
2022/12/10 06:15:10;;;;;;;612.60;144.95;;;;;;;-3.66;100.00;100846.22;5052875;28;20357;-48
2022/12/10 06:17:36;;;;;;;684.58;155.68;;;;;;;-3.68;100.00;100841.81;5052507;28;20032;-48
2022/12/10 06:20:01;;;;;;;215.57;36.72;;;;;;;-3.61;100.00;100854.19;5052072;28;20079;-46
2022/12/10 06:22:26;;;;;;;637.28;183.43;;;;;;;-3.62;100.00;100847.38;5052792;28;20079;-47
2022/12/10 06:24:51;;;;;;;670.97;176.30;;;;;;;-3.60;100.00;100845.00;5052644;28;20124;-47
2022/12/10 06:27:17;;;;;;;743.40;218.82;;;;;;;-3.62;100.00;100842.34;5052015;28;20059;-47
2022/12/10 06:29:43;;;;;;;726.97;177.73;;;;;;;-3.64;100.00;100843.88;5052507;28;20018;-47
2022/12/10 06:32:09;;;;;;;651.22;155.23;;;;;;;-3.65;100.00;100847.13;5052752;28;20074;-45
2022/12/10 06:34:34;;;;;;;662.33;168.98;;;;;;;-3.66;100.00;100850.41;5051487;28;20435;-47
2022/12/10 06:36:59;;;;;;;191.27;35.28;;;;;;;-3.59;100.00;100852.72;5052870;28;20025;-47
2022/12/10 06:39:25;;;;;;;217.80;35.03;;;;;;;-3.57;100.00;100857.88;5052766;28;20360;-47
2022/12/10 06:41:50;;;;;;;213.77;37.28;;;;;;;-3.57;100.00;100868.81;5051552;28;20122;-45
2022/12/10 06:44:15;;;;;;;599.47;141.98;;;;;;;-3.62;100.00;100866.66;5052539;28;20039;-47
2022/12/10 06:46:40;;;;;;;619.20;146.48;;;;;;;-3.67;100.00;100868.78;5053113;28;20028;-49
2022/12/10 06:49:07;;;;;;;592.35;142.93;;;;;;;-3.67;100.00;100869.69;5056167;28;20111;-47
2022/12/10 06:51:33;;;;;;;602.10;138.70;;;;;;;-3.69;100.00;100876.19;5056476;28;20029;-48
2022/12/10 06:53:58;;;;;;;575.75;137.57;;;;;;;-3.64;100.00;100874.97;5056272;28;20032;-49
2022/12/10 06:56:24;;;;;;;572.75;134.25;;;;;;;-3.61;100.00;100878.50;5056635;28;20103;-47
2022/12/10 06:58:49;;;;;;;569.15;133.40;;;;;;;-3.58;100.00;100874.59;5056208;28;20029;-47
2022/12/10 07:01:20;;;;;;;552.85;132.57;;;;;;;-3.55;100.00;100873.97;5055609;28;20380;-46
2022/12/10 07:03:51;;;;;;;584.67;134.43;;;;;;;-3.58;100.00;100878.78;5055981;28;20039;-45
2022/12/10 07:06:16;;;;;;;560.10;130.23;;;;;;;-3.56;100.00;100883.19;5056529;28;20032;-46
2022/12/10 07:08:42;;;;;;;545.80;128.73;;;;;;;-3.53;100.00;100875.00;5055331;28;20041;-47
2022/12/10 07:11:09;;;;;;;583.35;129.32;;;;;;;-3.57;100.00;100885.59;5056202;28;20028;-48
2022/12/10 07:13:35;;;;;;;549.42;128.30;;;;;;;-3.57;100.00;100886.44;5055872;28;20111;-46
2022/12/10 07:16:00;;;;;;;591.85;130.10;;;;;;;-3.58;100.00;100893.88;5055363;28;20120;-48
2022/12/10 07:18:26;;;;;;;582.58;125.18;;;;;;;-3.60;100.00;100891.25;5056317;28;20027;-43
2022/12/10 07:20:51;;;;;;;659.75;128.52;;;;;;;-3.62;100.00;100886.81;5055981;28;20064;-47
2022/12/10 07:23:16;;;;;;;590.40;128.90;;;;;;;-3.60;100.00;100885.28;5055067;28;20029;-48
2022/12/10 07:25:42;;;;;;;189.93;32.22;;;;;;;-3.53;100.00;100892.66;5055772;28;20025;-47
2022/12/10 07:28:07;;;;;;;566.67;129.02;;;;;;;-3.53;100.00;100890.13;5055831;28;20380;-48
2022/12/10 07:30:33;;;;;;;585.25;137.75;;;;;;;-3.51;100.00;100891.13;5054947;28;20017;-47
2022/12/10 07:32:59;;;;;;;654.05;161.70;;;;;;;-3.54;100.00;100895.91;5055772;28;20025;-47
2022/12/10 07:35:24;;;;;;;607.20;134.95;;;;;;;-3.52;100.00;100902.84;5055819;28;20491;-48
2022/12/10 07:37:49;;;;;;;651.92;134.10;;;;;;;-3.52;100.00;100901.97;5054516;28;20124;-48
2022/12/10 07:40:15;;;;;;;640.95;134.55;;;;;;;-3.54;100.00;100895.91;5055734;28;20021;-48
2022/12/10 07:42:40;;;;;;;672.17;138.20;;;;;;;-3.57;100.00;100911.66;5055088;28;20033;-47
2022/12/10 07:45:07;;;;;;;710.88;140.95;;;;;;;-3.58;100.00;100903.97;5054772;28;20029;-48
2022/12/10 07:47:38;;;;;;;658.20;140.30;;;;;;;-3.56;100.00;100907.50;5055364;28;20096;-46
2022/12/10 07:50:04;;;;;;;657.08;140.88;;;;;;;-3.58;100.00;100912.38;5055772;28;20067;-45
2022/12/10 07:52:30;;;;;;;658.28;144.23;;;;;;;-3.57;100.00;100905.75;5054899;28;20029;-47
2022/12/10 07:54:55;;;;;;;621.83;140.00;;;;;;;-3.53;100.00;100910.28;5055362;28;20025;-46
2022/12/10 07:57:20;;;;;;;669.42;144.23;;;;;;;-3.53;100.00;100917.84;5054389;28;20025;-47
2022/12/10 07:59:46;;;;;;;249.63;41.15;;;;;;;-3.46;100.00;100920.13;5054932;28;20021;-47
2022/12/10 08:02:12;;;;;;;277.30;46.28;;;;;;;-3.42;100.00;100914.63;5055081;28;20428;-48
2022/12/10 08:04:37;;;;;;;653.97;143.60;;;;;;;-3.50;100.00;100908.00;5054160;28;20033;-45
2022/12/10 08:07:03;;;;;;;628.38;144.13;;;;;;;-3.46;100.00;100912.56;5055388;28;20029;-46
2022/12/10 08:09:28;;;;;;;694.85;147.13;;;;;;;-3.47;100.00;100921.78;5055069;28;20028;-45
2022/12/10 08:11:53;;;;;;;680.00;146.98;;;;;;;-3.45;100.00;100926.94;5054072;28;20116;-45
2022/12/10 08:14:18;;;;;;;262.60;50.53;;;;;;;-3.37;100.00;100936.06;5055023;28;20028;-44
2022/12/10 08:16:44;;;;;;;701.95;150.27;;;;;;;-3.42;100.00;100941.44;5054921;28;20020;-48
2022/12/10 08:19:09;;;;;;;689.00;146.95;;;;;;;-3.39;100.00;100947.63;5054152;28;20021;-48
2022/12/10 08:21:34;;;;;;;676.00;148.57;;;;;;;-3.37;100.00;100946.16;5054752;28;20029;-47
2022/12/10 08:24:00;;;;;;;665.45;146.07;;;;;;;-3.33;100.00;100948.19;5054720;28;20036;-48
2022/12/10 08:26:28;;;;;;;641.33;146.57;;;;;;;-3.34;100.00;100948.91;5054070;28;20100;-47
2022/12/10 08:28:54;;;;;;;;;;;;;;;-3.26;100.00;100939.50;5054931;28;20480;-47
2022/12/10 08:31:20;;;;;;;681.08;144.90;;;;;;;-3.35;100.00;100949.66;5054999;28;19912;-47
2022/12/10 08:33:46;;;;;;;667.67;140.82;;;;;;;-3.31;100.00;100950.81;5053653;28;20552;-48
2022/12/10 08:36:13;;;;;;;200.80;36.08;;;;;;;-3.22;100.00;100951.63;5054658;28;20111;-48
2022/12/10 08:38:39;;;;;;;742.20;145.10;;;;;;;-3.27;100.00;100962.06;5054420;28;20048;-47
2022/12/10 08:41:09;;;;;;;655.38;141.95;;;;;;;-3.27;100.00;100962.06;5053799;28;20380;-48
2022/12/10 08:43:35;;;;;;;679.22;139.77;;;;;;;-3.25;100.00;100958.03;5054156;28;20120;-48
2022/12/10 08:46:01;;;;;;;627.15;136.20;;;;;;;-3.23;100.00;100959.91;5054594;28;20163;-45
2022/12/10 08:48:26;;;;;;;657.35;133.63;;;;;;;-3.23;100.00;100964.09;5053828;28;20033;-48
2022/12/10 08:50:52;;;;;;;583.92;134.45;;;;;;;-3.15;100.00;100958.06;5054158;28;20021;-48
2022/12/10 08:53:17;;;;;;;635.97;140.45;;;;;;;-3.16;100.00;100962.22;5054263;28;20025;-43
2022/12/10 08:55:42;;;;;;;647.63;135.07;;;;;;;-3.16;100.00;100963.88;5053201;28;20059;-43
2022/12/10 08:58:09;;;;;;;616.83;136.48;;;;;;;-3.13;100.00;100965.78;5054538;28;20033;-47
2022/12/10 09:00:35;;;;;;;652.85;132.90;;;;;;;-3.15;100.00;100965.63;5053147;28;20519;-47
2022/12/10 09:03:00;;;;;;;194.15;33.40;;;;;;;-3.04;100.00;100962.38;5054311;28;20051;-46
2022/12/10 09:05:25;;;;;;;631.78;134.45;;;;;;;-3.07;100.00;100968.81;5054008;28;20500;-44
2022/12/10 09:07:51;;;;;;;593.45;129.13;;;;;;;-3.08;100.00;100970.44;5053144;28;20124;-47
2022/12/10 09:10:16;;;;;;;574.92;133.55;;;;;;;-3.06;100.00;100968.97;5053368;28;20100;-48
2022/12/10 09:12:41;;;;;;;599.47;125.40;;;;;;;-3.07;100.00;100967.19;5053807;28;20029;-47
2022/12/10 09:15:09;;;;;;;661.75;133.43;;;;;;;-3.10;100.00;100966.91;5053174;28;20487;-47
2022/12/10 09:17:36;;;;;;;613.45;122.97;;;;;;;-3.10;100.00;100976.97;5053497;28;20380;-48
2022/12/10 09:20:02;;;;;;;588.07;123.43;;;;;;;-3.11;100.00;100979.38;5053715;28;20403;-47
2022/12/10 09:22:28;;;;;;;598.03;126.82;;;;;;;-3.11;100.00;100972.72;5053306;28;20283;-46
2022/12/10 09:24:54;;;;;;;628.25;128.43;;;;;;;-3.15;100.00;100973.19;5053422;28;20542;-49
2022/12/10 09:27:20;;;;;;;637.03;129.23;;;;;;;-3.15;100.00;100983.25;5053862;28;20017;-48
2022/12/10 09:29:45;;;;;;;639.20;124.72;;;;;;;-3.14;100.00;100985.03;5052616;28;20071;-47
2022/12/10 09:32:11;;;;;;;210.32;32.30;;;;;;;-3.05;100.00;100985.84;5053729;28;20016;-48
2022/12/10 09:34:36;;;;;;;693.28;127.43;;;;;;;-3.13;100.00;100986.81;5053134;28;20052;-48
2022/12/10 09:37:01;;;;;;;697.72;137.80;;;;;;;-3.07;100.00;100991.50;5052851;28;20025;-46
2022/12/10 09:39:27;;;;;;;629.38;137.00;;;;;;;-2.99;100.00;100996.44;5053332;28;20079;-48
2022/12/10 09:42:10;;;;;;;621.13;131.90;;;;;;;-2.94;100.00;100995.97;5053027;28;20055;-49
2022/12/10 09:45:04;;;;;;;610.58;126.38;;;;;;;-2.94;100.00;100996.88;5052600;28;20028;-48
2022/12/10 09:47:42;;;;;;;214.18;32.58;;;;;;;-2.86;100.00;100987.44;5050706;28;20036;-49
2022/12/10 09:50:21;;;;;;;603.70;128.32;;;;;;;-2.92;100.00;100997.84;5052896;28;20029;-48
2022/12/10 09:52:49;;;;;;;643.75;129.00;;;;;;;-2.95;100.00;100994.22;5053131;28;20021;-48
2022/12/10 09:55:18;;;;;;;610.08;120.47;;;;;;;-2.99;100.00;100996.44;5053184;28;20051;-49
2022/12/10 09:57:48;;;;;;;604.38;121.95;;;;;;;-2.98;100.00;101003.28;5052159;28;20029;-47
2022/12/10 10:00:38;;;;;;;176.27;30.55;;;;;;;-2.89;100.00;101003.19;5053095;28;20024;-49
2022/12/10 10:03:04;;;;;;;558.88;125.03;;;;;;;-2.99;100.00;101004.00;5049553;28;20041;-47
2022/12/10 10:05:33;;;;;;;559.92;122.50;;;;;;;-3.01;100.00;101013.09;5052134;28;20049;-47
2022/12/10 10:08:02;;;;;;;497.75;114.15;;;;;;;-3.04;100.00;101017.88;5053056;28;20108;-48
2022/12/10 10:10:36;;;;;;;542.80;117.18;;;;;;;-3.06;100.00;101010.91;5052914;28;20104;-50
2022/12/10 10:13:07;;;;;;;750.20;205.32;;;;;;;-3.04;100.00;101017.88;5052089;28;20082;-49
2022/12/10 10:15:39;;;;;;;582.15;124.70;;;;;;;-3.07;100.00;101012.56;5052454;28;20483;-50
2022/12/10 10:18:37;;;;;;;643.92;185.50;;;;;;;-2.99;100.00;101020.81;5052068;28;20465;-49
2022/12/10 10:21:07;;;;;;;580.45;146.23;;;;;;;-2.95;100.00;101027.00;5050210;28;20484;-46
2022/12/10 10:23:33;;;;;;;534.92;131.23;;;;;;;-2.93;100.00;101021.34;5052163;28;20033;-47
2022/12/10 10:25:58;;;;;;;591.28;141.55;;;;;;;-2.89;100.00;101022.47;5052181;28;20029;-48
2022/12/10 10:28:23;;;;;;;573.33;128.80;;;;;;;-2.86;100.00;101015.19;5052789;28;20107;-48
2022/12/10 10:30:51;;;;;;;581.78;128.93;;;;;;;-2.85;100.00;101020.34;5052283;28;20078;-48
2022/12/10 10:33:17;;;;;;;573.20;125.25;;;;;;;-2.83;100.00;101015.44;5051884;28;20480;-49
2022/12/10 10:35:54;;;;;;;548.58;134.75;;;;;;;-2.82;100.00;101013.03;5052203;28;20461;-49
2022/12/10 10:38:23;;;;;;;592.53;149.70;;;;;;;-2.84;100.00;101012.03;5052914;28;20100;-49
2022/12/10 10:40:56;;;;;;;615.70;202.82;;;;;;;-2.79;100.00;101014.06;5051387;28;20025;-50
2022/12/10 10:43:39;;;;;;;518.75;125.32;;;;;;;-2.77;100.00;101007.53;5052583;28;20035;-49
2022/12/10 10:46:12;;;;;;;550.28;132.70;;;;;;;-2.75;100.00;101011.94;5051747;28;20025;-48
2022/12/10 10:48:38;;;;;;;503.58;121.72;;;;;;;-2.79;100.00;101004.84;5052350;28;20108;-49
2022/12/10 10:51:07;;;;;;;462.55;106.40;;;;;;;-2.86;100.00;101012.66;5052608;28;20109;-49
2022/12/10 10:53:46;;;;;;;503.63;130.43;;;;;;;-2.82;100.00;101007.13;5051581;28;20060;-46
2022/12/10 10:56:17;;;;;;;455.10;104.43;;;;;;;-2.79;100.00;100999.78;5052532;28;20396;-48
2022/12/10 10:59:16;;;;;;;473.15;108.43;;;;;;;-2.74;100.00;101006.13;5051977;28;20029;-48
2022/12/10 11:01:53;;;;;;;474.65;111.88;;;;;;;-2.79;100.00;101003.97;5049896;28;20045;-49